sensor_id;sensor_type;location;lat;lon;timestamp;P1;durP1;ratioP1;P2;durP2;ratioP2
1400;SDS011;46518;48.842;8.926;2022-10-31T00:00:50;5.20;;;3.70;;
1400;SDS011;46518;48.842;8.926;2022-10-31T00:03:18;9.38;;;4.20;;
1400;SDS011;46518;48.842;8.926;2022-10-31T00:05:47;5.05;;;4.22;;
1400;SDS011;46518;48.842;8.926;2022-10-31T00:08:16;3.63;;;3.20;;
1400;SDS011;46518;48.842;8.926;2022-10-31T00:10:45;5.78;;;3.75;;
1400;SDS011;46518;48.842;8.926;2022-10-31T00:13:13;7.03;;;4.20;;
1400;SDS011;46518;48.842;8.926;2022-10-31T00:15:42;5.05;;;3.45;;
1400;SDS011;46518;48.842;8.926;2022-10-31T00:18:12;7.28;;;3.63;;
1400;SDS011;46518;48.842;8.926;2022-10-31T00:20:40;4.95;;;3.30;;
1400;SDS011;46518;48.842;8.926;2022-10-31T00:23:08;3.60;;;3.30;;
1400;SDS011;46518;48.842;8.926;2022-10-31T00:25:37;4.22;;;3.28;;
1400;SDS011;46518;48.842;8.926;2022-10-31T00:28:06;4.35;;;3.90;;
1400;SDS011;46518;48.842;8.926;2022-10-31T00:30:37;5.47;;;3.47;;
1400;SDS011;46518;48.842;8.926;2022-10-31T00:33:05;7.15;;;3.78;;
1400;SDS011;46518;48.842;8.926;2022-10-31T00:35:34;7.35;;;4.05;;
1400;SDS011;46518;48.842;8.926;2022-10-31T00:38:02;4.65;;;3.47;;
1400;SDS011;46518;48.842;8.926;2022-10-31T00:40:31;6.95;;;3.20;;
1400;SDS011;46518;48.842;8.926;2022-10-31T00:42:59;9.27;;;5.47;;
1400;SDS011;46518;48.842;8.926;2022-10-31T00:45:28;6.03;;;3.67;;
1400;SDS011;46518;48.842;8.926;2022-10-31T00:47:57;6.28;;;4.10;;
1400;SDS011;46518;48.842;8.926;2022-10-31T00:50:25;5.05;;;3.53;;
1400;SDS011;46518;48.842;8.926;2022-10-31T00:52:55;5.40;;;4.60;;
1400;SDS011;46518;48.842;8.926;2022-10-31T00:55:24;5.68;;;4.13;;
1400;SDS011;46518;48.842;8.926;2022-10-31T00:57:52;4.75;;;3.92;;
1400;SDS011;46518;48.842;8.926;2022-10-31T01:00:23;4.53;;;4.13;;
1400;SDS011;46518;48.842;8.926;2022-10-31T01:02:52;5.05;;;4.45;;
1400;SDS011;46518;48.842;8.926;2022-10-31T01:05:20;4.38;;;3.90;;
1400;SDS011;46518;48.842;8.926;2022-10-31T01:08:07;7.90;;;4.15;;
1400;SDS011;46518;48.842;8.926;2022-10-31T01:10:35;7.07;;;3.80;;
1400;SDS011;46518;48.842;8.926;2022-10-31T01:13:03;4.90;;;3.38;;
1400;SDS011;46518;48.842;8.926;2022-10-31T01:15:31;10.23;;;3.65;;
1400;SDS011;46518;48.842;8.926;2022-10-31T01:17:59;7.72;;;4.15;;
1400;SDS011;46518;48.842;8.926;2022-10-31T01:20:30;5.28;;;4.50;;
1400;SDS011;46518;48.842;8.926;2022-10-31T01:22:59;5.80;;;3.70;;
1400;SDS011;46518;48.842;8.926;2022-10-31T01:25:29;6.53;;;3.80;;
1400;SDS011;46518;48.842;8.926;2022-10-31T01:27:57;9.10;;;4.43;;
1400;SDS011;46518;48.842;8.926;2022-10-31T01:30:25;6.95;;;3.83;;
1400;SDS011;46518;48.842;8.926;2022-10-31T01:33:13;6.63;;;3.90;;
1400;SDS011;46518;48.842;8.926;2022-10-31T01:35:42;6.00;;;4.47;;
1400;SDS011;46518;48.842;8.926;2022-10-31T01:38:10;5.57;;;3.55;;
1400;SDS011;46518;48.842;8.926;2022-10-31T01:40:39;7.60;;;3.88;;
1400;SDS011;46518;48.842;8.926;2022-10-31T01:43:09;5.35;;;3.67;;
1400;SDS011;46518;48.842;8.926;2022-10-31T01:45:40;5.90;;;4.00;;
1400;SDS011;46518;48.842;8.926;2022-10-31T01:48:11;7.22;;;3.78;;
1400;SDS011;46518;48.842;8.926;2022-10-31T01:50:43;7.38;;;4.78;;
1400;SDS011;46518;48.842;8.926;2022-10-31T01:53:13;4.03;;;3.50;;
1400;SDS011;46518;48.842;8.926;2022-10-31T01:55:44;5.93;;;3.60;;
1400;SDS011;46518;48.842;8.926;2022-10-31T01:58:15;4.38;;;3.53;;
1400;SDS011;46518;48.842;8.926;2022-10-31T02:00:48;4.82;;;3.60;;
1400;SDS011;46518;48.842;8.926;2022-10-31T02:03:21;5.45;;;3.50;;
1400;SDS011;46518;48.842;8.926;2022-10-31T02:05:52;5.38;;;3.85;;
1400;SDS011;46518;48.842;8.926;2022-10-31T02:08:23;4.60;;;3.30;;
1400;SDS011;46518;48.842;8.926;2022-10-31T02:10:57;4.53;;;3.60;;
1400;SDS011;46518;48.842;8.926;2022-10-31T02:13:42;7.30;;;4.97;;
1400;SDS011;46518;48.842;8.926;2022-10-31T02:16:10;10.10;;;3.60;;
1400;SDS011;46518;48.842;8.926;2022-10-31T02:18:38;6.60;;;4.28;;
1400;SDS011;46518;48.842;8.926;2022-10-31T02:21:11;7.57;;;4.47;;
1400;SDS011;46518;48.842;8.926;2022-10-31T02:27:12;9.25;;;4.03;;
1400;SDS011;46518;48.842;8.926;2022-10-31T02:29:58;8.15;;;4.32;;
1400;SDS011;46518;48.842;8.926;2022-10-31T02:32:37;5.63;;;4.53;;
1400;SDS011;46518;48.842;8.926;2022-10-31T02:35:24;5.75;;;4.35;;
1400;SDS011;46518;48.842;8.926;2022-10-31T02:38:02;6.18;;;4.20;;
1400;SDS011;46518;48.842;8.926;2022-10-31T02:40:39;5.55;;;3.85;;
1400;SDS011;46518;48.842;8.926;2022-10-31T02:43:54;13.63;;;4.60;;
1400;SDS011;46518;48.842;8.926;2022-10-31T02:46:38;6.00;;;4.30;;
1400;SDS011;46518;48.842;8.926;2022-10-31T02:49:16;5.00;;;4.07;;
1400;SDS011;46518;48.842;8.926;2022-10-31T02:51:54;4.70;;;3.55;;
1400;SDS011;46518;48.842;8.926;2022-10-31T02:54:23;5.35;;;4.00;;
1400;SDS011;46518;48.842;8.926;2022-10-31T02:56:54;8.30;;;4.70;;
1400;SDS011;46518;48.842;8.926;2022-10-31T02:59:27;4.88;;;3.80;;
1400;SDS011;46518;48.842;8.926;2022-10-31T03:05:06;6.05;;;3.92;;
1400;SDS011;46518;48.842;8.926;2022-10-31T03:07:53;4.95;;;4.00;;
1400;SDS011;46518;48.842;8.926;2022-10-31T03:10:28;5.40;;;3.90;;
1400;SDS011;46518;48.842;8.926;2022-10-31T03:13:05;4.28;;;3.88;;
1400;SDS011;46518;48.842;8.926;2022-10-31T03:15:39;5.43;;;4.30;;
1400;SDS011;46518;48.842;8.926;2022-10-31T03:18:12;5.75;;;3.85;;
1400;SDS011;46518;48.842;8.926;2022-10-31T03:20:47;8.88;;;5.13;;
1400;SDS011;46518;48.842;8.926;2022-10-31T03:23:21;7.05;;;4.50;;
1400;SDS011;46518;48.842;8.926;2022-10-31T03:25:52;5.30;;;3.75;;
1400;SDS011;46518;48.842;8.926;2022-10-31T03:28:26;6.03;;;4.40;;
1400;SDS011;46518;48.842;8.926;2022-10-31T03:30:58;5.13;;;3.92;;
1400;SDS011;46518;48.842;8.926;2022-10-31T03:33:35;4.05;;;3.50;;
1400;SDS011;46518;48.842;8.926;2022-10-31T03:36:07;6.00;;;4.70;;
1400;SDS011;46518;48.842;8.926;2022-10-31T03:38:39;6.20;;;3.55;;
1400;SDS011;46518;48.842;8.926;2022-10-31T03:41:11;6.60;;;3.53;;
1400;SDS011;46518;48.842;8.926;2022-10-31T03:43:46;8.82;;;3.38;;
1400;SDS011;46518;48.842;8.926;2022-10-31T03:46:19;4.50;;;3.72;;
1400;SDS011;46518;48.842;8.926;2022-10-31T03:48:49;6.47;;;4.28;;
1400;SDS011;46518;48.842;8.926;2022-10-31T03:51:22;5.00;;;3.90;;
1400;SDS011;46518;48.842;8.926;2022-10-31T03:53:54;3.50;;;3.20;;
1400;SDS011;46518;48.842;8.926;2022-10-31T03:56:30;4.60;;;3.92;;
1400;SDS011;46518;48.842;8.926;2022-10-31T03:59:04;5.45;;;3.97;;
1400;SDS011;46518;48.842;8.926;2022-10-31T04:01:37;4.40;;;4.00;;
1400;SDS011;46518;48.842;8.926;2022-10-31T04:04:09;5.85;;;4.60;;
1400;SDS011;46518;48.842;8.926;2022-10-31T04:06:39;5.13;;;3.80;;
1400;SDS011;46518;48.842;8.926;2022-10-31T04:09:13;3.13;;;2.83;;
1400;SDS011;46518;48.842;8.926;2022-10-31T04:11:44;5.05;;;4.55;;
1400;SDS011;46518;48.842;8.926;2022-10-31T04:14:39;4.00;;;3.67;;
1400;SDS011;46518;48.842;8.926;2022-10-31T04:17:09;8.00;;;4.18;;
1400;SDS011;46518;48.842;8.926;2022-10-31T04:19:43;9.98;;;3.47;;
1400;SDS011;46518;48.842;8.926;2022-10-31T04:25:13;6.03;;;3.75;;
1400;SDS011;46518;48.842;8.926;2022-10-31T04:27:42;4.93;;;3.40;;
1400;SDS011;46518;48.842;8.926;2022-10-31T04:30:10;5.65;;;3.63;;
1400;SDS011;46518;48.842;8.926;2022-10-31T04:32:41;4.47;;;3.47;;
1400;SDS011;46518;48.842;8.926;2022-10-31T04:35:10;5.95;;;3.33;;
1400;SDS011;46518;48.842;8.926;2022-10-31T04:37:38;7.30;;;3.53;;
1400;SDS011;46518;48.842;8.926;2022-10-31T04:40:09;5.30;;;3.83;;
1400;SDS011;46518;48.842;8.926;2022-10-31T04:42:54;3.67;;;3.33;;
1400;SDS011;46518;48.842;8.926;2022-10-31T04:45:23;7.22;;;3.42;;
1400;SDS011;46518;48.842;8.926;2022-10-31T04:47:52;4.93;;;3.95;;
1400;SDS011;46518;48.842;8.926;2022-10-31T04:50:22;8.00;;;3.83;;
1400;SDS011;46518;48.842;8.926;2022-10-31T04:52:50;4.97;;;3.65;;
1400;SDS011;46518;48.842;8.926;2022-10-31T04:55:25;3.90;;;3.30;;
1400;SDS011;46518;48.842;8.926;2022-10-31T04:58:13;4.90;;;3.53;;
1400;SDS011;46518;48.842;8.926;2022-10-31T05:00:43;3.97;;;3.50;;
1400;SDS011;46518;48.842;8.926;2022-10-31T05:03:11;4.53;;;3.40;;
1400;SDS011;46518;48.842;8.926;2022-10-31T05:05:39;4.72;;;3.58;;
1400;SDS011;46518;48.842;8.926;2022-10-31T05:08:09;4.45;;;3.38;;
1400;SDS011;46518;48.842;8.926;2022-10-31T05:10:39;8.13;;;3.70;;
1400;SDS011;46518;48.842;8.926;2022-10-31T05:13:07;7.63;;;4.00;;
1400;SDS011;46518;48.842;8.926;2022-10-31T05:15:54;5.72;;;4.25;;
1400;SDS011;46518;48.842;8.926;2022-10-31T05:18:31;7.88;;;4.00;;
1400;SDS011;46518;48.842;8.926;2022-10-31T05:21:19;3.80;;;3.50;;
1400;SDS011;46518;48.842;8.926;2022-10-31T05:23:53;8.38;;;3.78;;
1400;SDS011;46518;48.842;8.926;2022-10-31T05:26:25;5.10;;;3.80;;
1400;SDS011;46518;48.842;8.926;2022-10-31T05:29:00;7.15;;;3.95;;
1400;SDS011;46518;48.842;8.926;2022-10-31T05:31:29;6.43;;;4.43;;
1400;SDS011;46518;48.842;8.926;2022-10-31T05:33:57;6.70;;;4.72;;
1400;SDS011;46518;48.842;8.926;2022-10-31T05:36:48;3.90;;;3.05;;
1400;SDS011;46518;48.842;8.926;2022-10-31T05:39:20;7.82;;;4.10;;
1400;SDS011;46518;48.842;8.926;2022-10-31T05:41:55;8.48;;;4.15;;
1400;SDS011;46518;48.842;8.926;2022-10-31T05:44:26;10.07;;;4.82;;
1400;SDS011;46518;48.842;8.926;2022-10-31T05:47:21;7.78;;;4.47;;
1400;SDS011;46518;48.842;8.926;2022-10-31T05:49:54;6.32;;;3.58;;
1400;SDS011;46518;48.842;8.926;2022-10-31T05:52:41;5.35;;;4.60;;
1400;SDS011;46518;48.842;8.926;2022-10-31T05:55:32;7.63;;;4.30;;
1400;SDS011;46518;48.842;8.926;2022-10-31T05:58:11;6.03;;;3.95;;
1400;SDS011;46518;48.842;8.926;2022-10-31T06:00:48;5.97;;;4.18;;
1400;SDS011;46518;48.842;8.926;2022-10-31T06:03:16;8.23;;;4.28;;
1400;SDS011;46518;48.842;8.926;2022-10-31T06:05:51;9.27;;;4.38;;
1400;SDS011;46518;48.842;8.926;2022-10-31T06:08:24;4.72;;;4.15;;
1400;SDS011;46518;48.842;8.926;2022-10-31T06:10:54;5.07;;;3.60;;
1400;SDS011;46518;48.842;8.926;2022-10-31T06:13:43;5.35;;;4.65;;
1400;SDS011;46518;48.842;8.926;2022-10-31T06:16:18;6.25;;;4.22;;
1400;SDS011;46518;48.842;8.926;2022-10-31T06:18:46;6.05;;;3.88;;
1400;SDS011;46518;48.842;8.926;2022-10-31T06:21:14;6.00;;;4.55;;
1400;SDS011;46518;48.842;8.926;2022-10-31T06:23:47;7.00;;;3.08;;
1400;SDS011;46518;48.842;8.926;2022-10-31T06:26:53;6.85;;;4.45;;
1400;SDS011;46518;48.842;8.926;2022-10-31T06:29:23;4.25;;;3.85;;
1400;SDS011;46518;48.842;8.926;2022-10-31T06:32:14;11.70;;;4.43;;
1400;SDS011;46518;48.842;8.926;2022-10-31T06:34:43;3.88;;;3.25;;
1400;SDS011;46518;48.842;8.926;2022-10-31T06:37:14;5.65;;;3.60;;
1400;SDS011;46518;48.842;8.926;2022-10-31T06:39:56;5.85;;;3.83;;
1400;SDS011;46518;48.842;8.926;2022-10-31T06:42:31;7.65;;;4.35;;
1400;SDS011;46518;48.842;8.926;2022-10-31T06:45:02;7.55;;;4.30;;
1400;SDS011;46518;48.842;8.926;2022-10-31T06:47:31;6.05;;;4.13;;
1400;SDS011;46518;48.842;8.926;2022-10-31T06:50:16;5.20;;;4.22;;
1400;SDS011;46518;48.842;8.926;2022-10-31T06:52:49;4.53;;;4.07;;
1400;SDS011;46518;48.842;8.926;2022-10-31T06:55:19;4.22;;;3.83;;
1400;SDS011;46518;48.842;8.926;2022-10-31T06:57:49;8.32;;;3.90;;
1400;SDS011;46518;48.842;8.926;2022-10-31T07:00:19;6.40;;;4.38;;
1400;SDS011;46518;48.842;8.926;2022-10-31T07:02:55;5.90;;;4.72;;
1400;SDS011;46518;48.842;8.926;2022-10-31T07:05:24;9.55;;;4.03;;
1400;SDS011;46518;48.842;8.926;2022-10-31T07:07:53;5.60;;;4.05;;
1400;SDS011;46518;48.842;8.926;2022-10-31T07:10:22;4.57;;;4.00;;
1400;SDS011;46518;48.842;8.926;2022-10-31T07:12:59;6.35;;;4.38;;
1400;SDS011;46518;48.842;8.926;2022-10-31T07:19:34;6.55;;;4.15;;
1400;SDS011;46518;48.842;8.926;2022-10-31T07:22:03;6.90;;;3.88;;
1400;SDS011;46518;48.842;8.926;2022-10-31T07:24:32;9.75;;;4.15;;
1400;SDS011;46518;48.842;8.926;2022-10-31T07:27:35;8.00;;;4.43;;
1400;SDS011;46518;48.842;8.926;2022-10-31T07:30:10;7.13;;;4.72;;
1400;SDS011;46518;48.842;8.926;2022-10-31T07:32:42;7.38;;;4.53;;
1400;SDS011;46518;48.842;8.926;2022-10-31T07:36:10;5.97;;;4.82;;
1400;SDS011;46518;48.842;8.926;2022-10-31T07:38:41;7.72;;;4.35;;
1400;SDS011;46518;48.842;8.926;2022-10-31T07:41:09;6.20;;;4.60;;
1400;SDS011;46518;48.842;8.926;2022-10-31T07:43:41;5.20;;;3.53;;
1400;SDS011;46518;48.842;8.926;2022-10-31T07:46:30;5.75;;;4.97;;
1400;SDS011;46518;48.842;8.926;2022-10-31T07:49:30;5.00;;;4.15;;
1400;SDS011;46518;48.842;8.926;2022-10-31T07:52:18;6.32;;;4.68;;
1400;SDS011;46518;48.842;8.926;2022-10-31T07:55:13;4.78;;;3.78;;
1400;SDS011;46518;48.842;8.926;2022-10-31T07:57:46;5.28;;;4.78;;
1400;SDS011;46518;48.842;8.926;2022-10-31T08:00:23;5.05;;;4.15;;
1400;SDS011;46518;48.842;8.926;2022-10-31T08:02:58;4.38;;;3.97;;
1400;SDS011;46518;48.842;8.926;2022-10-31T08:05:47;6.05;;;5.00;;
1400;SDS011;46518;48.842;8.926;2022-10-31T08:08:35;6.85;;;4.40;;
1400;SDS011;46518;48.842;8.926;2022-10-31T08:11:07;6.47;;;4.40;;
1400;SDS011;46518;48.842;8.926;2022-10-31T08:13:37;5.88;;;4.32;;
1400;SDS011;46518;48.842;8.926;2022-10-31T08:16:05;8.23;;;4.97;;
1400;SDS011;46518;48.842;8.926;2022-10-31T08:18:39;7.43;;;4.28;;
1400;SDS011;46518;48.842;8.926;2022-10-31T08:21:12;8.30;;;4.20;;
1400;SDS011;46518;48.842;8.926;2022-10-31T08:23:42;8.18;;;4.45;;
1400;SDS011;46518;48.842;8.926;2022-10-31T08:26:11;10.05;;;4.40;;
1400;SDS011;46518;48.842;8.926;2022-10-31T08:28:39;7.18;;;5.05;;
1400;SDS011;46518;48.842;8.926;2022-10-31T08:31:08;7.95;;;4.50;;
1400;SDS011;46518;48.842;8.926;2022-10-31T08:33:39;10.10;;;4.40;;
1400;SDS011;46518;48.842;8.926;2022-10-31T08:36:26;5.80;;;3.88;;
1400;SDS011;46518;48.842;8.926;2022-10-31T08:39:06;5.18;;;4.03;;
1400;SDS011;46518;48.842;8.926;2022-10-31T08:41:34;5.00;;;4.25;;
1400;SDS011;46518;48.842;8.926;2022-10-31T08:44:06;5.90;;;4.53;;
1400;SDS011;46518;48.842;8.926;2022-10-31T08:46:35;5.57;;;4.15;;
1400;SDS011;46518;48.842;8.926;2022-10-31T08:49:04;8.82;;;4.85;;
1400;SDS011;46518;48.842;8.926;2022-10-31T08:51:32;5.45;;;3.70;;
1400;SDS011;46518;48.842;8.926;2022-10-31T08:54:01;5.95;;;4.70;;
1400;SDS011;46518;48.842;8.926;2022-10-31T08:56:33;6.70;;;4.72;;
1400;SDS011;46518;48.842;8.926;2022-10-31T08:59:08;4.35;;;3.83;;
1400;SDS011;46518;48.842;8.926;2022-10-31T09:01:57;5.95;;;3.90;;
1400;SDS011;46518;48.842;8.926;2022-10-31T09:04:25;6.30;;;4.95;;
1400;SDS011;46518;48.842;8.926;2022-10-31T09:06:54;7.13;;;4.10;;
1400;SDS011;46518;48.842;8.926;2022-10-31T09:09:42;5.25;;;3.63;;
1400;SDS011;46518;48.842;8.926;2022-10-31T09:12:12;6.70;;;4.50;;
1400;SDS011;46518;48.842;8.926;2022-10-31T09:14:57;4.90;;;4.40;;
1400;SDS011;46518;48.842;8.926;2022-10-31T09:17:36;4.55;;;3.95;;
1400;SDS011;46518;48.842;8.926;2022-10-31T09:20:23;5.90;;;4.28;;
1400;SDS011;46518;48.842;8.926;2022-10-31T09:22:55;6.97;;;4.40;;
1400;SDS011;46518;48.842;8.926;2022-10-31T09:25:24;5.72;;;4.55;;
1400;SDS011;46518;48.842;8.926;2022-10-31T09:28:14;6.28;;;3.75;;
1400;SDS011;46518;48.842;8.926;2022-10-31T09:30:46;5.70;;;4.45;;
1400;SDS011;46518;48.842;8.926;2022-10-31T09:33:21;8.63;;;5.13;;
1400;SDS011;46518;48.842;8.926;2022-10-31T09:36:10;4.90;;;4.18;;
1400;SDS011;46518;48.842;8.926;2022-10-31T09:38:39;7.18;;;4.70;;
1400;SDS011;46518;48.842;8.926;2022-10-31T09:41:12;6.63;;;6.00;;
1400;SDS011;46518;48.842;8.926;2022-10-31T09:43:50;6.90;;;5.05;;
1400;SDS011;46518;48.842;8.926;2022-10-31T09:46:29;4.85;;;4.15;;
1400;SDS011;46518;48.842;8.926;2022-10-31T09:49:16;5.65;;;4.28;;
1400;SDS011;46518;48.842;8.926;2022-10-31T09:51:57;6.78;;;4.40;;
1400;SDS011;46518;48.842;8.926;2022-10-31T09:54:32;5.10;;;4.20;;
1400;SDS011;46518;48.842;8.926;2022-10-31T09:57:05;5.38;;;4.40;;
1400;SDS011;46518;48.842;8.926;2022-10-31T09:59:44;6.90;;;4.70;;
1400;SDS011;46518;48.842;8.926;2022-10-31T10:02:17;4.70;;;4.15;;
1400;SDS011;46518;48.842;8.926;2022-10-31T10:04:53;4.25;;;3.75;;
1400;SDS011;46518;48.842;8.926;2022-10-31T10:07:34;7.70;;;3.95;;
1400;SDS011;46518;48.842;8.926;2022-10-31T10:10:29;6.90;;;4.05;;
1400;SDS011;46518;48.842;8.926;2022-10-31T10:13:30;5.00;;;3.47;;
1400;SDS011;46518;48.842;8.926;2022-10-31T10:16:30;7.22;;;4.30;;
1400;SDS011;46518;48.842;8.926;2022-10-31T10:19:12;6.05;;;3.80;;
1400;SDS011;46518;48.842;8.926;2022-10-31T10:21:53;5.57;;;4.07;;
1400;SDS011;46518;48.842;8.926;2022-10-31T10:24:30;4.60;;;4.20;;
1400;SDS011;46518;48.842;8.926;2022-10-31T10:27:12;6.15;;;3.55;;
1400;SDS011;46518;48.842;8.926;2022-10-31T10:29:50;8.98;;;4.47;;
1400;SDS011;46518;48.842;8.926;2022-10-31T10:32:27;7.03;;;4.50;;
1400;SDS011;46518;48.842;8.926;2022-10-31T10:34:58;6.90;;;3.78;;
1400;SDS011;46518;48.842;8.926;2022-10-31T10:37:36;5.43;;;4.80;;
1400;SDS011;46518;48.842;8.926;2022-10-31T10:40:11;9.15;;;4.72;;
1400;SDS011;46518;48.842;8.926;2022-10-31T10:42:44;5.90;;;3.85;;
1400;SDS011;46518;48.842;8.926;2022-10-31T10:45:35;5.45;;;4.22;;
1400;SDS011;46518;48.842;8.926;2022-10-31T10:48:25;4.20;;;3.85;;
1400;SDS011;46518;48.842;8.926;2022-10-31T10:51:02;5.07;;;3.75;;
1400;SDS011;46518;48.842;8.926;2022-10-31T10:54:09;5.30;;;3.78;;
1400;SDS011;46518;48.842;8.926;2022-10-31T10:57:19;7.00;;;3.90;;
1400;SDS011;46518;48.842;8.926;2022-10-31T10:59:50;4.40;;;3.35;;
1400;SDS011;46518;48.842;8.926;2022-10-31T11:02:20;6.72;;;3.80;;
1400;SDS011;46518;48.842;8.926;2022-10-31T11:04:52;7.28;;;4.68;;
1400;SDS011;46518;48.842;8.926;2022-10-31T11:07:22;13.18;;;4.45;;
1400;SDS011;46518;48.842;8.926;2022-10-31T11:10:01;7.13;;;4.47;;
1400;SDS011;46518;48.842;8.926;2022-10-31T11:12:32;5.60;;;4.97;;
1400;SDS011;46518;48.842;8.926;2022-10-31T11:15:02;10.05;;;4.95;;
1400;SDS011;46518;48.842;8.926;2022-10-31T11:17:36;8.48;;;4.93;;
1400;SDS011;46518;48.842;8.926;2022-10-31T11:20:22;8.07;;;5.05;;
1400;SDS011;46518;48.842;8.926;2022-10-31T11:23:00;6.82;;;4.32;;
1400;SDS011;46518;48.842;8.926;2022-10-31T11:25:31;6.10;;;4.32;;
1400;SDS011;46518;48.842;8.926;2022-10-31T11:28:00;4.68;;;4.13;;
1400;SDS011;46518;48.842;8.926;2022-10-31T11:30:29;6.50;;;4.50;;
1400;SDS011;46518;48.842;8.926;2022-10-31T11:32:58;7.20;;;5.18;;
1400;SDS011;46518;48.842;8.926;2022-10-31T11:35:28;12.70;;;4.85;;
1400;SDS011;46518;48.842;8.926;2022-10-31T11:37:57;8.45;;;5.07;;
1400;SDS011;46518;48.842;8.926;2022-10-31T11:40:29;7.68;;;5.13;;
1400;SDS011;46518;48.842;8.926;2022-10-31T11:42:57;7.30;;;4.75;;
1400;SDS011;46518;48.842;8.926;2022-10-31T11:45:28;5.95;;;4.82;;
1400;SDS011;46518;48.842;8.926;2022-10-31T11:48:00;6.68;;;4.35;;
1400;SDS011;46518;48.842;8.926;2022-10-31T11:50:33;8.63;;;5.50;;
1400;SDS011;46518;48.842;8.926;2022-10-31T11:53:10;9.88;;;5.85;;
1400;SDS011;46518;48.842;8.926;2022-10-31T11:55:42;13.27;;;6.20;;
1400;SDS011;46518;48.842;8.926;2022-10-31T11:58:20;7.93;;;5.93;;
1400;SDS011;46518;48.842;8.926;2022-10-31T12:00:50;12.48;;;6.25;;
1400;SDS011;46518;48.842;8.926;2022-10-31T12:03:26;9.85;;;5.80;;
1400;SDS011;46518;48.842;8.926;2022-10-31T12:06:03;10.05;;;5.75;;
1400;SDS011;46518;48.842;8.926;2022-10-31T12:08:35;10.80;;;6.40;;
1400;SDS011;46518;48.842;8.926;2022-10-31T12:11:07;10.95;;;6.68;;
1400;SDS011;46518;48.842;8.926;2022-10-31T12:13:44;8.20;;;6.63;;
1400;SDS011;46518;48.842;8.926;2022-10-31T12:16:30;10.00;;;7.20;;
1400;SDS011;46518;48.842;8.926;2022-10-31T12:19:04;11.88;;;7.18;;
1400;SDS011;46518;48.842;8.926;2022-10-31T12:24:36;10.65;;;7.85;;
1400;SDS011;46518;48.842;8.926;2022-10-31T12:27:16;10.68;;;6.45;;
1400;SDS011;46518;48.842;8.926;2022-10-31T12:30:08;11.73;;;9.45;;
1400;SDS011;46518;48.842;8.926;2022-10-31T12:32:48;8.25;;;6.72;;
1400;SDS011;46518;48.842;8.926;2022-10-31T12:35:44;8.43;;;6.20;;
1400;SDS011;46518;48.842;8.926;2022-10-31T12:38:46;7.82;;;5.82;;
1400;SDS011;46518;48.842;8.926;2022-10-31T12:41:30;9.13;;;6.82;;
1400;SDS011;46518;48.842;8.926;2022-10-31T12:44:12;11.35;;;6.63;;
1400;SDS011;46518;48.842;8.926;2022-10-31T12:46:54;10.93;;;5.68;;
1400;SDS011;46518;48.842;8.926;2022-10-31T12:49:39;12.30;;;5.55;;
1400;SDS011;46518;48.842;8.926;2022-10-31T12:52:25;10.13;;;6.25;;
1400;SDS011;46518;48.842;8.926;2022-10-31T12:55:10;7.18;;;5.80;;
1400;SDS011;46518;48.842;8.926;2022-10-31T12:57:52;10.57;;;6.97;;
1400;SDS011;46518;48.842;8.926;2022-10-31T13:00:25;8.48;;;6.07;;
1400;SDS011;46518;48.842;8.926;2022-10-31T13:02:56;9.93;;;7.07;;
1400;SDS011;46518;48.842;8.926;2022-10-31T13:05:29;7.53;;;5.97;;
1400;SDS011;46518;48.842;8.926;2022-10-31T13:08:03;6.65;;;5.78;;
1400;SDS011;46518;48.842;8.926;2022-10-31T13:10:36;10.60;;;7.78;;
1400;SDS011;46518;48.842;8.926;2022-10-31T13:13:12;10.55;;;6.93;;
1400;SDS011;46518;48.842;8.926;2022-10-31T13:15:46;10.85;;;7.10;;
1400;SDS011;46518;48.842;8.926;2022-10-31T13:18:25;13.82;;;6.72;;
1400;SDS011;46518;48.842;8.926;2022-10-31T13:21:21;10.07;;;6.30;;
1400;SDS011;46518;48.842;8.926;2022-10-31T13:23:52;13.05;;;6.53;;
1400;SDS011;46518;48.842;8.926;2022-10-31T13:26:32;11.55;;;6.18;;
1400;SDS011;46518;48.842;8.926;2022-10-31T13:29:06;11.90;;;6.28;;
1400;SDS011;46518;48.842;8.926;2022-10-31T13:31:41;9.93;;;5.70;;
1400;SDS011;46518;48.842;8.926;2022-10-31T13:34:12;8.95;;;6.97;;
1400;SDS011;46518;48.842;8.926;2022-10-31T13:36:55;11.27;;;6.47;;
1400;SDS011;46518;48.842;8.926;2022-10-31T13:39:32;9.43;;;6.10;;
1400;SDS011;46518;48.842;8.926;2022-10-31T13:42:14;6.85;;;5.45;;
1400;SDS011;46518;48.842;8.926;2022-10-31T13:44:48;10.23;;;6.13;;
1400;SDS011;46518;48.842;8.926;2022-10-31T13:47:21;9.47;;;6.60;;
1400;SDS011;46518;48.842;8.926;2022-10-31T13:49:51;8.52;;;6.53;;
1400;SDS011;46518;48.842;8.926;2022-10-31T13:52:23;13.93;;;6.50;;
1400;SDS011;46518;48.842;8.926;2022-10-31T13:54:52;11.15;;;5.97;;
1400;SDS011;46518;48.842;8.926;2022-10-31T13:57:28;10.30;;;5.70;;
1400;SDS011;46518;48.842;8.926;2022-10-31T14:00:01;13.88;;;7.50;;
1400;SDS011;46518;48.842;8.926;2022-10-31T14:02:37;8.98;;;6.38;;
1400;SDS011;46518;48.842;8.926;2022-10-31T14:05:18;12.57;;;7.10;;
1400;SDS011;46518;48.842;8.926;2022-10-31T14:07:51;13.88;;;7.25;;
1400;SDS011;46518;48.842;8.926;2022-10-31T14:10:21;11.88;;;6.85;;
1400;SDS011;46518;48.842;8.926;2022-10-31T14:13:02;9.55;;;7.22;;
1400;SDS011;46518;48.842;8.926;2022-10-31T14:15:33;9.05;;;6.65;;
1400;SDS011;46518;48.842;8.926;2022-10-31T14:18:06;12.32;;;6.20;;
1400;SDS011;46518;48.842;8.926;2022-10-31T14:20:49;10.68;;;7.28;;
1400;SDS011;46518;48.842;8.926;2022-10-31T14:23:32;13.25;;;6.40;;
1400;SDS011;46518;48.842;8.926;2022-10-31T14:26:14;5.90;;;5.35;;
1400;SDS011;46518;48.842;8.926;2022-10-31T14:28:48;8.10;;;6.20;;
1400;SDS011;46518;48.842;8.926;2022-10-31T14:31:26;7.78;;;5.63;;
1400;SDS011;46518;48.842;8.926;2022-10-31T14:34:00;6.95;;;5.35;;
1400;SDS011;46518;48.842;8.926;2022-10-31T14:36:34;8.20;;;6.22;;
1400;SDS011;46518;48.842;8.926;2022-10-31T14:39:15;9.48;;;5.90;;
1400;SDS011;46518;48.842;8.926;2022-10-31T14:41:53;9.80;;;5.57;;
1400;SDS011;46518;48.842;8.926;2022-10-31T14:44:41;10.25;;;5.85;;
1400;SDS011;46518;48.842;8.926;2022-10-31T14:47:33;10.52;;;5.13;;
1400;SDS011;46518;48.842;8.926;2022-10-31T14:50:14;8.57;;;6.80;;
1400;SDS011;46518;48.842;8.926;2022-10-31T14:52:50;9.47;;;6.87;;
1400;SDS011;46518;48.842;8.926;2022-10-31T14:55:21;15.07;;;6.67;;
1400;SDS011;46518;48.842;8.926;2022-10-31T14:57:52;12.40;;;7.95;;
1400;SDS011;46518;48.842;8.926;2022-10-31T15:00:25;13.10;;;6.40;;
1400;SDS011;46518;48.842;8.926;2022-10-31T15:03:08;8.35;;;6.07;;
1400;SDS011;46518;48.842;8.926;2022-10-31T15:05:55;11.85;;;6.40;;
1400;SDS011;46518;48.842;8.926;2022-10-31T15:08:31;9.53;;;6.07;;
1400;SDS011;46518;48.842;8.926;2022-10-31T15:11:03;12.60;;;6.93;;
1400;SDS011;46518;48.842;8.926;2022-10-31T15:13:41;10.40;;;6.10;;
1400;SDS011;46518;48.842;8.926;2022-10-31T15:16:15;9.02;;;6.13;;
1400;SDS011;46518;48.842;8.926;2022-10-31T15:18:48;8.52;;;5.82;;
1400;SDS011;46518;48.842;8.926;2022-10-31T15:21:19;11.68;;;6.32;;
1400;SDS011;46518;48.842;8.926;2022-10-31T15:23:49;11.77;;;7.90;;
1400;SDS011;46518;48.842;8.926;2022-10-31T15:26:21;10.98;;;8.20;;
1400;SDS011;46518;48.842;8.926;2022-10-31T15:28:57;13.07;;;7.03;;
1400;SDS011;46518;48.842;8.926;2022-10-31T15:31:29;7.75;;;6.82;;
1400;SDS011;46518;48.842;8.926;2022-10-31T15:33:59;12.05;;;8.68;;
1400;SDS011;46518;48.842;8.926;2022-10-31T15:36:31;11.10;;;7.80;;
1400;SDS011;46518;48.842;8.926;2022-10-31T15:39:04;11.63;;;6.80;;
1400;SDS011;46518;48.842;8.926;2022-10-31T15:41:33;8.25;;;6.32;;
1400;SDS011;46518;48.842;8.926;2022-10-31T15:44:10;11.23;;;7.32;;
1400;SDS011;46518;48.842;8.926;2022-10-31T15:46:43;7.93;;;7.13;;
1400;SDS011;46518;48.842;8.926;2022-10-31T15:49:16;12.40;;;8.73;;
1400;SDS011;46518;48.842;8.926;2022-10-31T15:51:54;11.93;;;7.00;;
1400;SDS011;46518;48.842;8.926;2022-10-31T15:54:22;11.05;;;7.80;;
1400;SDS011;46518;48.842;8.926;2022-10-31T15:56:50;11.90;;;7.30;;
1400;SDS011;46518;48.842;8.926;2022-10-31T15:59:19;11.75;;;6.80;;
1400;SDS011;46518;48.842;8.926;2022-10-31T16:01:59;11.73;;;6.30;;
1400;SDS011;46518;48.842;8.926;2022-10-31T16:04:29;7.32;;;6.20;;